Time;durP1;ratioP1;P1;durP2;ratioP2;P2;SDS_P1;SDS_P2;PMS_P1;PMS_P2;Temp;Humidity;BMP_temperature;BMP_pressure;BME280_temperature;BME280_humidity;BME280_pressure;Samples;Min_cycle;Max_cycle;Signal;HPM_P1;HPM_P2
2022/12/28 00:00:05;;;;;;;12.85;6.30;;;-0.70;99.90;;;;;;4924899;29;20421;-73
2022/12/28 00:02:31;;;;;;;17.98;7.03;;;-0.80;99.90;;;;;;4924278;29;20392;-72
2022/12/28 00:04:56;;;;;;;14.90;7.00;;;-0.80;99.90;;;;;;4924090;29;20039;-72
2022/12/28 00:07:22;;;;;;;15.57;6.97;;;-0.80;99.90;;;;;;4941365;29;20045;-72
2022/12/28 00:09:47;;;;;;;14.00;7.50;;;-0.60;99.90;;;;;;4923678;29;20024;-72
2022/12/28 00:12:13;;;;;;;13.80;7.13;;;-0.80;99.90;;;;;;4940366;29;20362;-72
2022/12/28 00:14:39;;;;;;;16.02;7.22;;;-0.80;99.90;;;;;;4923711;29;20429;-73
2022/12/28 00:17:04;;;;;;;13.43;7.28;;;-0.70;99.90;;;;;;4924453;29;20525;-72
2022/12/28 00:19:30;;;;;;;13.82;6.57;;;-0.80;99.90;;;;;;4940689;29;20483;-72
2022/12/28 00:21:56;;;;;;;13.68;7.35;;;-0.80;99.90;;;;;;4940311;29;20035;-73
2022/12/28 00:24:23;;;;;;;16.40;7.03;;;-0.80;99.90;;;;;;4923191;29;20051;-72
2022/12/28 00:26:49;;;;;;;17.65;7.03;;;-0.80;99.90;;;;;;4923184;29;20035;-72
2022/12/28 00:29:15;;;;;;;16.23;6.47;;;-0.70;99.90;;;;;;4940146;29;20024;-72
2022/12/28 00:31:41;;;;;;;12.65;6.78;;;-0.90;99.90;;;;;;4923274;29;20460;-72
2022/12/28 00:34:06;;;;;;;17.92;6.57;;;-0.80;99.90;;;;;;4922790;29;20027;-72
2022/12/28 00:36:32;;;;;;;13.52;6.32;;;-1.00;99.90;;;;;;4940079;29;20491;-73
2022/12/28 00:38:58;;;;;;;14.15;6.68;;;-1.00;99.90;;;;;;4940079;29;20528;-72
2022/12/28 00:41:24;;;;;;;13.52;7.00;;;-1.00;99.90;;;;;;4922851;29;20032;-72
2022/12/28 00:43:50;;;;;;;12.68;6.18;;;-1.10;99.90;;;;;;4939352;29;20036;-72
2022/12/28 00:46:16;;;;;;;16.20;6.25;;;-1.00;99.90;;;;;;4939407;29;20032;-73
2022/12/28 00:48:42;;;;;;;13.40;6.35;;;-1.10;99.90;;;;;;4922926;29;20428;-72
2022/12/28 00:51:13;;;;;;;12.52;6.47;;;-1.10;99.90;;;;;;4939928;29;20028;-73
2022/12/28 00:53:39;;;;;;;13.13;5.72;;;-1.10;99.90;;;;;;4939881;29;20032;-72
2022/12/28 00:56:11;;;;;;;12.32;6.25;;;-1.10;99.90;;;;;;4922683;29;20051;-72
2022/12/28 00:58:37;;;;;;;13.57;6.38;;;-1.10;99.90;;;;;;4939774;29;20030;-73
2022/12/28 01:01:04;;;;;;;13.30;6.43;;;-1.10;99.90;;;;;;4939195;29;20019;-72
2022/12/28 01:03:30;;;;;;;14.85;5.95;;;-1.20;99.90;;;;;;4923089;29;20036;-72
2022/12/28 01:05:55;;;;;;;17.17;6.05;;;-0.90;99.90;;;;;;4940173;29;20027;-72
2022/12/28 01:08:21;;;;;;;12.32;6.05;;;-1.20;99.90;;;;;;4939849;29;20034;-73
2022/12/28 01:10:47;;;;;;;11.30;5.80;;;-1.20;99.90;;;;;;4922205;29;20039;-72
2022/12/28 01:13:13;;;;;;;10.15;5.90;;;-1.10;99.90;;;;;;4939875;29;20039;-72
2022/12/28 01:15:38;;;;;;;12.90;6.18;;;-1.20;99.90;;;;;;4938972;29;20045;-72
2022/12/28 01:18:04;;;;;;;12.15;6.47;;;-1.20;99.90;;;;;;4939475;29;20024;-72
2022/12/28 01:20:30;;;;;;;13.82;6.30;;;-1.20;99.90;;;;;;4939501;29;20036;-72
2022/12/28 01:22:56;;;;;;;12.68;6.85;;;-1.10;99.90;;;;;;4922497;29;20475;-72
2022/12/28 01:25:21;;;;;;;13.82;6.93;;;-1.10;99.90;;;;;;4922732;29;20032;-72
2022/12/28 01:27:47;;;;;;;13.05;6.60;;;-1.20;99.90;;;;;;4939645;29;20031;-73
2022/12/28 01:30:14;;;;;;;13.98;6.47;;;-1.10;99.90;;;;;;4938892;29;20163;-72
2022/12/28 01:32:39;;;;;;;13.40;6.88;;;-1.10;99.90;;;;;;4939171;29;20031;-73
2022/12/28 01:35:05;;;;;;;10.15;6.07;;;-1.20;99.90;;;;;;4939399;29;20144;-72
2022/12/28 01:37:31;;;;;;;14.48;6.30;;;-1.20;99.90;;;;;;4939155;29;20058;-72
2022/12/28 01:39:58;;;;;;;14.60;6.25;;;-1.20;99.90;;;;;;4939172;29;20102;-73
2022/12/28 01:42:24;;;;;;;15.52;5.85;;;-1.20;99.90;;;;;;4939408;29;20042;-72
2022/12/28 01:44:50;;;;;;;14.07;5.70;;;-1.20;99.90;;;;;;4921809;29;20040;-73
2022/12/28 01:47:34;;;;;;;12.13;5.70;;;-1.30;99.90;;;;;;4938722;29;20395;-72
2022/12/28 01:50:07;;;;;;;10.77;5.70;;;-1.20;99.90;;;;;;4938966;29;20023;-72
2022/12/28 01:52:40;;;;;;;10.85;5.78;;;-1.30;99.90;;;;;;4938744;29;20024;-72
2022/12/28 01:55:23;;;;;;;14.38;5.72;;;-1.30;99.90;;;;;;4938515;29;20107;-72
2022/12/28 01:58:05;;;;;;;8.85;5.05;;;-1.30;99.90;;;;;;4938827;29;20028;-73
2022/12/28 02:00:31;;;;;;;11.45;5.15;;;-1.40;99.90;;;;;;4921403;29;20094;-72
2022/12/28 02:03:12;;;;;;;12.85;5.50;;;-1.40;99.90;;;;;;4938110;29;20459;-72
2022/12/28 02:05:42;;;;;;;13.73;5.90;;;-1.40;99.90;;;;;;4939088;29;20047;-73
2022/12/28 02:08:21;;;;;;;15.15;6.50;;;-1.30;99.90;;;;;;4940032;29;20031;-73
2022/12/28 02:10:48;;;;;;;12.45;5.47;;;-1.40;99.90;;;;;;4939276;29;20106;-72
2022/12/28 02:13:16;;;;;;;15.23;5.82;;;-1.40;99.90;;;;;;4921707;29;20036;-72
2022/12/28 02:15:43;;;;;;;11.70;5.20;;;-1.40;99.90;;;;;;4921330;29;20191;-72
2022/12/28 02:18:09;;;;;;;9.70;5.85;;;-1.50;99.90;;;;;;4922472;29;20032;-73
2022/12/28 02:20:56;;;;;;;16.27;6.10;;;-1.40;99.90;;;;;;4923581;29;20027;-73
2022/12/28 02:23:43;;;;;;;12.55;5.07;;;-1.40;99.90;;;;;;4939697;29;20114;-73
2022/12/28 02:26:17;;;;;;;11.55;4.90;;;-1.40;99.90;;;;;;4938515;29;20063;-73
2022/12/28 02:28:42;;;;;;;12.50;5.10;;;-1.50;99.90;;;;;;4921432;29;20055;-72
2022/12/28 02:31:25;;;;;;;10.88;4.95;;;-1.40;99.90;;;;;;4921624;29;20023;-73
2022/12/28 02:34:31;;;;;;;5.97;4.30;;;-1.50;99.90;;;;;;4938154;29;20091;-72
2022/12/28 02:37:15;;;;;;;12.07;5.57;;;-1.60;99.90;;;;;;4860409;29;20109;-73
2022/12/28 02:39:46;;;;;;;12.57;4.95;;;-1.60;99.90;;;;;;4934187;29;20511;-72
2022/12/28 02:42:14;;;;;;;10.45;5.28;;;-1.60;99.90;;;;;;4937391;29;20370;-73
2022/12/28 02:50:13;;;;;;;13.02;4.57;;;-1.50;99.90;;;;;;4937274;29;20392;-72
2022/12/28 02:53:16;;;;;;;14.55;5.97;;;-1.50;99.90;;;;;;4937706;29;20034;-72
2022/12/28 02:56:06;;;;;;;9.93;5.13;;;-1.60;99.90;;;;;;4898755;29;20044;-73
2022/12/28 02:59:11;;;;;;;9.70;4.90;;;-1.60;99.90;;;;;;4937554;29;20067;-72
2022/12/28 03:01:52;;;;;;;9.85;4.95;;;-1.70;99.90;;;;;;4920282;29;20417;-73
2022/12/28 03:04:26;;;;;;;9.43;4.15;;;-1.70;99.90;;;;;;4937600;29;20119;-72
2022/12/28 03:09:53;;;;;;;10.73;4.88;;;-1.70;99.90;;;;;;4941543;29;20046;-73
2022/12/28 03:12:28;;;;;;;8.27;4.70;;;-1.70;99.90;;;;;;4924220;29;20028;-73
2022/12/28 03:15:30;;;;;;;8.73;4.40;;;-1.70;99.90;;;;;;4941293;29;20047;-73
2022/12/28 03:32:02;;;;;;;9.77;4.95;;;-1.90;99.90;;;;;;4943069;29;20086;-73
2022/12/28 03:34:28;;;;;;;8.57;4.20;;;-1.90;99.90;;;;;;4926786;29;20043;-73
2022/12/28 03:37:02;;;;;;;8.48;4.43;;;-1.90;99.90;;;;;;4924769;29;20056;-73
2022/12/28 03:39:56;;;;;;;8.35;4.28;;;-1.90;99.90;;;;;;4924218;29;20031;-73
2022/12/28 03:45:21;;;;;;;17.23;4.95;;;-2.00;99.90;;;;;;4940530;29;20094;-73
2022/12/28 03:47:49;;;;;;;10.27;4.43;;;-2.00;99.90;;;;;;4940722;29;20032;-72
2022/12/28 03:50:17;;;;;;;9.20;4.83;;;-2.00;99.90;;;;;;4940428;29;20028;-72
2022/12/28 03:52:42;;;;;;;9.60;4.18;;;-2.00;99.90;;;;;;4923465;29;20268;-72
2022/12/28 03:55:12;;;;;;;8.35;4.20;;;-1.70;99.90;;;;;;4923305;29;20035;-72
2022/12/28 03:57:37;;;;;;;6.57;3.83;;;-2.00;99.90;;;;;;4940228;29;20032;-72
2022/12/28 04:00:03;;;;;;;10.57;4.53;;;-1.30;99.90;;;;;;4923451;29;20042;-73
2022/12/28 04:02:29;;;;;;;9.50;4.45;;;-2.10;99.90;;;;;;4940463;29;20059;-72
2022/12/28 04:04:55;;;;;;;8.07;3.85;;;-2.00;99.90;;;;;;4940070;29;20039;-72
2022/12/28 04:07:20;;;;;;;14.60;4.28;;;-1.40;99.90;;;;;;4940084;29;20028;-72
2022/12/28 04:09:46;;;;;;;12.73;5.18;;;-2.10;99.90;;;;;;4922837;29;20039;-72
2022/12/28 04:12:13;;;;;;;7.07;4.32;;;-1.20;99.90;;;;;;4940196;29;20031;-72
2022/12/28 04:14:39;;;;;;;12.98;4.65;;;-2.10;99.90;;;;;;4922657;29;20028;-73
2022/12/28 04:17:05;;;;;;;9.15;4.13;;;-2.10;99.90;;;;;;4939519;29;20488;-73
2022/12/28 04:19:31;;;;;;;8.90;4.05;;;-2.10;99.90;;;;;;4939089;29;20087;-72
2022/12/28 04:21:56;;;;;;;9.32;4.53;;;-2.10;99.90;;;;;;4922323;29;20031;-73
2022/12/28 04:24:22;;;;;;;7.10;3.80;;;-2.10;99.90;;;;;;4939374;29;20044;-72
2022/12/28 04:26:48;;;;;;;8.80;5.03;;;-1.80;99.90;;;;;;4939561;29;20028;-72
2022/12/28 04:29:13;;;;;;;5.93;3.88;;;-2.10;99.90;;;;;;4922345;29;20035;-72
2022/12/28 04:31:39;;;;;;;8.75;3.67;;;-2.10;99.90;;;;;;4939332;29;20082;-72
2022/12/28 04:34:05;;;;;;;7.88;3.72;;;-2.10;99.90;;;;;;4939983;29;20094;-72
2022/12/28 04:36:31;;;;;;;8.70;3.53;;;-2.10;99.90;;;;;;4939233;29;20039;-72
2022/12/28 04:38:58;;;;;;;10.25;3.92;;;-2.00;99.90;;;;;;4939375;29;20024;-72
2022/12/28 04:41:24;;;;;;;7.15;3.83;;;-2.10;99.90;;;;;;4939383;29;20035;-72
2022/12/28 04:43:50;;;;;;;6.63;3.95;;;-2.10;99.90;;;;;;4939386;29;20036;-72
2022/12/28 04:46:16;;;;;;;8.85;4.28;;;-2.10;99.90;;;;;;4922424;29;20027;-72
2022/12/28 04:48:43;;;;;;;9.32;3.78;;;-2.10;99.90;;;;;;4922768;29;20028;-73
2022/12/28 04:51:15;;;;;;;8.63;3.65;;;-2.20;99.90;;;;;;4922313;29;20043;-73
2022/12/28 04:53:41;;;;;;;7.57;4.35;;;-2.20;99.90;;;;;;4921841;29;20055;-72
2022/12/28 04:56:08;;;;;;;11.60;4.07;;;-2.20;99.90;;;;;;4939095;29;20028;-72
2022/12/28 04:58:35;;;;;;;6.07;3.40;;;-2.20;99.90;;;;;;4921787;29;20047;-73
2022/12/28 05:01:12;;;;;;;8.15;3.75;;;-2.20;99.90;;;;;;4938781;29;20059;-72
2022/12/28 05:03:41;;;;;;;10.18;4.03;;;-2.20;99.90;;;;;;4938674;29;20067;-72
2022/12/28 05:06:11;;;;;;;10.75;4.35;;;-2.20;99.90;;;;;;4921459;29;20032;-72
2022/12/28 05:08:37;;;;;;;5.45;3.70;;;-2.20;99.90;;;;;;4922188;29;20122;-73
2022/12/28 05:11:07;;;;;;;7.38;3.78;;;-1.70;99.90;;;;;;4921445;29;20454;-72
2022/12/28 05:13:33;;;;;;;7.57;3.38;;;-2.20;99.90;;;;;;4938706;29;20032;-72
2022/12/28 05:16:08;;;;;;;8.75;3.75;;;-1.50;99.90;;;;;;4939282;29;20066;-73
2022/12/28 05:18:35;;;;;;;8.57;3.90;;;-2.20;99.90;;;;;;4939600;29;20071;-73
2022/12/28 05:21:14;;;;;;;9.07;3.65;;;-2.20;99.90;;;;;;4924379;29;20453;-73
2022/12/28 05:23:40;;;;;;;8.88;3.80;;;-2.20;99.90;;;;;;4923468;29;20031;-73
2022/12/28 05:26:09;;;;;;;6.65;3.60;;;-2.20;99.90;;;;;;4939209;29;20032;-73
2022/12/28 05:28:34;;;;;;;5.90;3.90;;;-2.20;99.90;;;;;;4921904;29;20027;-73
2022/12/28 05:31:03;;;;;;;6.72;3.63;;;-2.20;99.90;;;;;;4937748;29;20089;-73
2022/12/28 05:33:31;;;;;;;6.45;3.95;;;-2.30;99.90;;;;;;4938732;29;20032;-73
2022/12/28 05:36:02;;;;;;;9.52;3.58;;;-2.30;99.90;;;;;;4921597;29;20031;-73
2022/12/28 05:38:28;;;;;;;7.10;3.33;;;-2.30;99.90;;;;;;4939001;29;20032;-73
2022/12/28 05:40:53;;;;;;;7.82;3.80;;;-2.30;99.90;;;;;;4938622;29;20392;-72
2022/12/28 05:43:19;;;;;;;8.02;4.18;;;-2.10;99.90;;;;;;4938550;29;20028;-73
2022/12/28 05:45:44;;;;;;;13.15;3.97;;;-2.30;99.90;;;;;;4938351;29;20043;-73
2022/12/28 05:48:10;;;;;;;7.93;3.70;;;-2.30;99.90;;;;;;4938536;29;20027;-73
2022/12/28 05:50:36;;;;;;;7.60;4.47;;;-2.30;99.90;;;;;;4921306;29;20034;-74
2022/12/28 05:53:01;;;;;;;12.93;3.88;;;-2.40;99.90;;;;;;4938931;29;20035;-73
2022/12/28 05:55:27;;;;;;;7.32;3.90;;;-1.90;99.90;;;;;;4938717;29;20370;-73
2022/12/28 05:57:56;;;;;;;8.55;4.43;;;-2.30;99.90;;;;;;4921084;29;20107;-73
2022/12/28 06:00:21;;;;;;;10.98;5.68;;;-2.10;99.90;;;;;;4938068;29;20031;-73
2022/12/28 06:02:47;;;;;;;12.48;6.35;;;-2.30;99.90;;;;;;4937541;29;20036;-73
2022/12/28 06:05:13;;;;;;;16.20;6.80;;;-2.30;99.90;;;;;;4937665;29;20042;-73
2022/12/28 06:07:38;;;;;;;15.45;7.53;;;-2.30;99.90;;;;;;4937387;29;20036;-73
2022/12/28 06:10:05;;;;;;;19.23;8.13;;;-2.30;99.90;;;;;;4920163;29;20027;-73
2022/12/28 06:12:30;;;;;;;18.30;8.43;;;-2.30;99.90;;;;;;4937321;29;20114;-73
2022/12/28 06:14:56;;;;;;;19.08;8.38;;;-2.30;99.90;;;;;;4920388;29;20123;-73
2022/12/28 06:17:22;;;;;;;16.58;8.10;;;-2.20;99.90;;;;;;4937020;29;20039;-72
2022/12/28 06:19:47;;;;;;;14.25;7.00;;;-2.20;99.90;;;;;;4937258;29;20372;-73
2022/12/28 06:22:13;;;;;;;10.38;6.15;;;-2.20;99.90;;;;;;4936923;29;20028;-73
2022/12/28 06:24:39;;;;;;;11.57;5.80;;;-2.30;99.90;;;;;;4936926;29;20032;-73
2022/12/28 06:27:04;;;;;;;12.02;5.72;;;-2.30;99.90;;;;;;4919994;29;20031;-73
2022/12/28 06:29:30;;;;;;;14.65;5.72;;;-2.20;99.90;;;;;;4937757;29;20147;-73
2022/12/28 06:32:02;;;;;;;12.05;5.97;;;-2.30;99.90;;;;;;4939163;29;20028;-73
2022/12/28 06:34:27;;;;;;;13.25;5.60;;;-2.30;99.90;;;;;;4922500;29;20428;-73
2022/12/28 06:36:55;;;;;;;18.55;6.82;;;-2.30;99.90;;;;;;4938437;29;20110;-73
2022/12/28 06:39:21;;;;;;;11.73;6.00;;;-2.30;99.90;;;;;;4920710;29;20024;-73
2022/12/28 06:41:46;;;;;;;15.70;6.97;;;-2.30;99.90;;;;;;4936830;29;20362;-73
2022/12/28 06:44:12;;;;;;;13.82;7.50;;;-2.20;99.90;;;;;;4937151;29;20028;-72
2022/12/28 06:46:39;;;;;;;17.60;7.93;;;-2.20;99.90;;;;;;4920287;29;20031;-73
2022/12/28 06:49:05;;;;;;;17.08;7.85;;;-2.20;99.90;;;;;;4920338;29;20075;-72
2022/12/28 06:51:37;;;;;;;12.30;6.63;;;-2.20;99.90;;;;;;4937871;29;20035;-72
2022/12/28 06:54:03;;;;;;;13.43;6.50;;;-2.20;99.90;;;;;;4920226;29;20087;-73
2022/12/28 06:56:31;;;;;;;12.38;6.15;;;-2.20;99.90;;;;;;4937628;29;20059;-72
2022/12/28 06:58:57;;;;;;;12.57;6.18;;;-2.10;99.90;;;;;;4937359;29;20024;-71
2022/12/28 07:01:26;;;;;;;15.07;5.97;;;-2.10;99.90;;;;;;4920275;29;20039;-71
2022/12/28 07:03:54;;;;;;;10.27;5.32;;;-2.10;99.90;;;;;;4938203;29;20072;-71
2022/12/28 07:06:22;;;;;;;9.02;5.18;;;-2.10;99.90;;;;;;4937972;29;20071;-71
2022/12/28 07:08:48;;;;;;;10.10;5.10;;;-1.90;99.90;;;;;;4937937;29;20067;-71
2022/12/28 07:11:21;;;;;;;9.23;4.70;;;-1.90;99.90;;;;;;4937346;29;20287;-71
2022/12/28 07:13:47;;;;;;;12.73;4.95;;;-2.00;99.90;;;;;;4921203;29;20054;-72
2022/12/28 07:16:24;;;;;;;11.80;5.20;;;-2.00;99.90;;;;;;4938320;29;20083;-72
2022/12/28 07:18:49;;;;;;;9.73;5.00;;;-1.90;99.90;;;;;;4938683;29;20024;-72
2022/12/28 07:21:20;;;;;;;10.90;4.38;;;-1.90;99.90;;;;;;4938042;29;20107;-72
2022/12/28 07:23:46;;;;;;;13.23;5.18;;;-1.90;99.90;;;;;;4937840;29;20067;-71
2022/12/28 07:26:14;;;;;;;10.60;4.88;;;-1.70;99.90;;;;;;4937665;29;20036;-72
2022/12/28 07:28:42;;;;;;;10.15;5.20;;;-1.70;99.90;;;;;;4937919;29;20028;-71
2022/12/28 07:31:11;;;;;;;14.60;6.28;;;-1.70;99.90;;;;;;4936588;29;20086;-60
2022/12/28 07:33:37;;;;;;;11.25;5.88;;;-1.70;99.90;;;;;;4936810;29;20036;-60
2022/12/28 07:36:05;;;;;;;15.07;5.82;;;-1.60;99.90;;;;;;4936225;29;20148;-59
2022/12/28 07:38:31;;;;;;;14.23;5.65;;;-1.60;99.90;;;;;;4936410;29;20469;-60
2022/12/28 07:41:05;;;;;;;15.27;6.20;;;-1.60;99.90;;;;;;4936105;29;20036;-71
2022/12/28 07:43:31;;;;;;;14.20;6.38;;;-1.50;99.90;;;;;;4920306;29;20028;-72
2022/12/28 07:46:06;;;;;;;13.80;6.50;;;-1.40;99.90;;;;;;4937129;29;20035;-72
2022/12/28 07:48:33;;;;;;;14.27;5.85;;;-1.40;99.90;;;;;;4937760;29;20027;-71
2022/12/28 07:51:10;;;;;;;12.23;5.68;;;-1.30;99.90;;;;;;4937776;29;20110;-71
2022/12/28 07:53:37;;;;;;;10.60;6.07;;;-1.30;99.90;;;;;;4922271;29;20039;-71
2022/12/28 07:56:04;;;;;;;8.95;5.95;;;-1.20;99.90;;;;;;4941480;29;20023;-72
2022/12/28 07:58:29;;;;;;;15.65;7.50;;;-1.20;99.90;;;;;;4939521;29;20498;-72
2022/12/28 08:01:09;;;;;;;13.52;6.55;;;-1.20;99.90;;;;;;4940721;29;20053;-71
2022/12/28 08:03:35;;;;;;;20.45;7.68;;;-1.20;99.90;;;;;;4940720;29;20032;-71
2022/12/28 08:06:08;;;;;;;14.13;6.18;;;-1.20;99.90;;;;;;4924038;29;20083;-71
2022/12/28 08:08:35;;;;;;;19.95;6.40;;;-1.20;99.90;;;;;;4924001;29;20087;-71
2022/12/28 08:11:03;;;;;;;14.30;7.22;;;-1.20;99.90;;;;;;4923825;29;20532;-71
2022/12/28 08:13:32;;;;;;;13.77;6.10;;;-1.10;99.90;;;;;;4941194;29;20544;-71
2022/12/28 08:15:58;;;;;;;14.43;6.72;;;-1.10;99.90;;;;;;4941034;29;20035;-72
2022/12/28 08:18:23;;;;;;;16.77;6.30;;;-1.00;99.90;;;;;;4941117;29;20106;-72
2022/12/28 08:20:49;;;;;;;11.27;7.18;;;-0.50;99.90;;;;;;4923812;29;20040;-71
2022/12/28 08:23:15;;;;;;;11.95;5.78;;;-0.90;99.90;;;;;;4923336;29;20461;-72
2022/12/28 08:25:40;;;;;;;13.52;6.20;;;-0.70;99.90;;;;;;4923308;29;20126;-71
2022/12/28 08:28:06;;;;;;;12.30;6.25;;;-0.70;99.90;;;;;;4940216;29;20147;-72
2022/12/28 08:30:32;;;;;;;12.10;6.07;;;-0.70;99.90;;;;;;4939795;29;20052;-72
2022/12/28 08:32:57;;;;;;;11.45;6.32;;;-0.60;99.90;;;;;;4922862;29;20070;-72
2022/12/28 08:35:23;;;;;;;13.32;6.68;;;-0.50;99.90;;;;;;4922334;29;20477;-77
2022/12/28 08:37:48;;;;;;;15.20;6.78;;;-0.50;99.90;;;;;;4939679;29;20058;-71
2022/12/28 08:40:14;;;;;;;10.65;6.22;;;-0.50;99.90;;;;;;4922452;29;20136;-67
2022/12/28 08:42:40;;;;;;;12.90;6.65;;;-0.50;99.90;;;;;;4939472;29;20032;-73
2022/12/28 08:45:06;;;;;;;14.05;5.85;;;-0.50;99.90;;;;;;4922454;29;20046;-73
2022/12/28 08:47:32;;;;;;;11.80;5.70;;;-0.40;99.90;;;;;;4940506;29;20028;-73
2022/12/28 08:49:57;;;;;;;9.93;5.65;;;-0.20;99.90;;;;;;4940489;29;20027;-73
2022/12/28 08:52:23;;;;;;;8.65;5.60;;;-0.10;99.90;;;;;;4941348;29;20043;-73
2022/12/28 08:54:49;;;;;;;11.65;5.80;;;0.50;99.90;;;;;;4942851;29;20059;-73
2022/12/28 08:57:15;;;;;;;8.40;5.32;;;1.30;99.90;;;;;;4942388;29;20032;-73
2022/12/28 08:59:41;;;;;;;10.40;5.30;;;2.20;99.90;;;;;;4942115;29;20083;-72
2022/12/28 09:02:10;;;;;;;9.48;5.13;;;3.10;99.90;;;;;;4944011;29;20114;-72
2022/12/28 09:04:35;;;;;;;7.88;4.00;;;4.10;99.90;;;;;;4945136;29;20055;-73
2022/12/28 09:07:01;;;;;;;9.35;4.03;;;4.80;99.90;;;;;;4943733;29;20086;-73
2022/12/28 09:09:27;;;;;;;7.88;4.68;;;5.30;99.90;;;;;;4943003;29;20095;-73
2022/12/28 09:11:52;;;;;;;5.45;3.72;;;5.90;99.90;;;;;;4927088;29;20028;-72
2022/12/28 09:14:18;;;;;;;7.90;3.67;;;6.40;99.90;;;;;;4926597;29;20032;-72
2022/12/28 09:16:44;;;;;;;4.88;3.20;;;6.40;99.90;;;;;;4944139;29;20043;-73
2022/12/28 09:19:12;;;;;;;9.07;3.70;;;6.70;99.90;;;;;;4926473;29;20075;-72
2022/12/28 09:21:38;;;;;;;7.03;3.90;;;7.40;99.90;;;;;;4942950;29;20027;-72
2022/12/28 09:24:05;;;;;;;7.50;3.47;;;7.70;99.90;;;;;;4942954;29;20050;-71
2022/12/28 09:26:34;;;;;;;5.82;3.72;;;7.10;99.00;;;;;;4929041;29;20392;-71
2022/12/28 09:29:02;;;;;;;5.28;3.30;;;6.40;99.90;;;;;;4946469;29;20079;-71
2022/12/28 09:31:30;;;;;;;6.80;3.78;;;5.50;99.90;;;;;;4946808;29;20385;-71
2022/12/28 09:34:02;;;;;;;5.45;3.25;;;5.10;99.90;;;;;;4946349;29;20032;-71
2022/12/28 09:36:37;;;;;;;6.10;3.53;;;5.00;99.90;;;;;;4927273;29;20472;-71
2022/12/28 09:39:12;;;;;;;7.25;3.15;;;4.60;99.90;;;;;;4925656;29;20032;-71
2022/12/28 09:41:47;;;;;;;7.10;3.90;;;4.40;99.90;;;;;;4942716;29;20079;-71
2022/12/28 09:44:16;;;;;;;8.07;3.58;;;4.30;99.90;;;;;;4940617;29;20118;-71
2022/12/28 09:47:00;;;;;;;8.65;4.15;;;4.30;99.90;;;;;;4942378;29;20035;-71
2022/12/28 09:49:55;;;;;;;4.70;2.58;;;4.50;99.90;;;;;;4943249;29;20027;-70
2022/12/28 09:52:37;;;;;;;5.93;3.40;;;4.70;99.90;;;;;;4925130;29;20036;-70
2022/12/28 09:55:12;;;;;;;10.13;4.03;;;4.80;99.90;;;;;;4925603;29;20453;-70
2022/12/28 09:57:43;;;;;;;8.75;3.70;;;4.90;99.90;;;;;;4926070;29;20385;-70
2022/12/28 10:00:41;;;;;;;6.68;3.85;;;5.00;99.90;;;;;;4943497;29;20171;-70
2022/12/28 10:03:22;;;;;;;6.40;3.50;;;5.40;99.90;;;;;;4925815;29;20043;-71
2022/12/28 10:05:50;;;;;;;5.82;3.63;;;5.60;99.90;;;;;;4943196;29;20099;-70
2022/12/28 10:08:19;;;;;;;5.70;3.63;;;5.60;99.90;;;;;;4942204;29;20105;-71
2022/12/28 10:10:46;;;;;;;;;;;5.50;99.90;;;;;;4941904;29;20524;-70
2022/12/28 10:13:17;;;;;;;7.65;3.97;;;5.40;99.90;;;;;;4942567;29;19914;-71
2022/12/28 10:15:43;;;;;;;10.93;4.15;;;5.30;99.90;;;;;;4942132;29;20528;-71
2022/12/28 10:18:12;;;;;;;8.85;3.28;;;5.50;99.90;;;;;;4942017;29;20028;-71
2022/12/28 10:20:39;;;;;;;7.38;3.08;;;5.60;99.90;;;;;;4943350;29;20028;-71
2022/12/28 10:23:05;;;;;;;10.57;3.90;;;5.70;99.90;;;;;;4925353;29;20455;-71
2022/12/28 10:25:31;;;;;;;10.02;3.78;;;5.80;99.90;;;;;;4941639;29;20047;-70
2022/12/28 10:27:59;;;;;;;9.77;3.72;;;5.80;99.90;;;;;;4924930;29;20024;-71
2022/12/28 10:30:25;;;;;;;9.63;3.22;;;6.00;99.90;;;;;;4942013;29;20034;-71
2022/12/28 10:33:00;;;;;;;8.00;3.13;;;6.10;99.90;;;;;;4925107;29;20395;-71
2022/12/28 10:35:39;;;;;;;5.93;3.97;;;6.10;99.90;;;;;;4942578;29;20035;-71
2022/12/28 10:38:24;;;;;;;6.60;3.63;;;6.10;99.90;;;;;;4923597;29;20408;-71
2022/12/28 10:41:16;;;;;;;6.40;4.30;;;6.10;99.90;;;;;;4924080;29;20028;-71
2022/12/28 10:43:51;;;;;;;7.30;4.45;;;6.10;99.90;;;;;;4924004;29;20103;-71
2022/12/28 10:46:20;;;;;;;13.63;5.18;;;6.10;99.90;;;;;;4923893;29;20032;-70
2022/12/28 10:48:58;;;;;;;10.40;4.88;;;6.30;99.90;;;;;;4940905;29;20458;-70
2022/12/28 10:51:26;;;;;;;10.87;4.10;;;6.50;99.90;;;;;;4922786;29;20524;-70
2022/12/28 10:53:56;;;;;;;6.10;3.15;;;6.90;99.90;;;;;;4921118;29;20129;-71
2022/12/28 10:56:22;;;;;;;6.22;3.00;;;7.20;99.90;;;;;;4941134;29;20091;-71
2022/12/28 10:58:51;;;;;;;5.65;2.67;;;7.30;99.90;;;;;;4941277;29;20055;-71
2022/12/28 11:01:18;;;;;;;3.85;2.53;;;7.40;99.90;;;;;;4940430;29;20032;-71
2022/12/28 11:03:54;;;;;;;4.25;3.10;;;7.40;99.90;;;;;;4940091;29;20057;-72
2022/12/28 11:06:24;;;;;;;7.45;2.97;;;7.20;99.90;;;;;;4924486;29;20032;-71
2022/12/28 11:09:03;;;;;;;7.85;3.53;;;7.20;99.90;;;;;;4941063;29;20066;-71
2022/12/28 11:11:29;;;;;;;12.50;3.97;;;7.20;99.90;;;;;;4940979;29;20031;-73
2022/12/28 11:14:01;;;;;;;7.80;3.58;;;7.20;99.90;;;;;;4940440;29;20039;-72
2022/12/28 11:16:38;;;;;;;6.47;3.72;;;7.10;99.90;;;;;;4941435;29;20028;-71
2022/12/28 11:19:04;;;;;;;7.88;4.15;;;7.10;99.90;;;;;;4941127;29;20058;-71
2022/12/28 11:21:31;;;;;;;6.80;4.13;;;7.10;99.90;;;;;;4924016;29;20028;-72
2022/12/28 11:23:57;;;;;;;10.13;4.55;;;7.10;99.90;;;;;;4940159;29;20088;-72
2022/12/28 11:26:23;;;;;;;10.02;4.60;;;7.10;99.90;;;;;;4922879;29;20060;-72
2022/12/28 11:28:52;;;;;;;7.28;4.38;;;7.20;99.90;;;;;;4940383;29;20020;-71
2022/12/28 11:31:32;;;;;;;8.23;4.90;;;7.20;99.90;;;;;;4943948;29;20035;-70
2022/12/28 11:34:04;;;;;;;9.82;5.30;;;7.10;99.90;;;;;;4927034;29;20464;-71
2022/12/28 11:36:37;;;;;;;10.63;6.03;;;7.10;99.90;;;;;;4942485;29;20047;-71
2022/12/28 11:39:26;;;;;;;9.23;5.90;;;7.20;99.90;;;;;;4943852;29;20024;-71
2022/12/28 11:41:56;;;;;;;7.43;4.93;;;7.20;99.90;;;;;;4942497;29;20067;-71
2022/12/28 11:44:28;;;;;;;9.90;5.45;;;7.20;99.90;;;;;;4926927;29;20035;-71
2022/12/28 11:47:14;;;;;;;11.50;5.07;;;7.20;99.90;;;;;;4925788;29;20035;-69
2022/12/28 11:49:39;;;;;;;11.73;4.80;;;7.30;99.90;;;;;;4941891;29;20059;-70
2022/12/28 11:52:22;;;;;;;11.20;5.70;;;7.20;99.90;;;;;;4926023;29;20428;-70
2022/12/28 11:54:51;;;;;;;10.35;5.50;;;7.10;99.90;;;;;;4925656;29;20555;-70
2022/12/28 11:57:37;;;;;;;12.60;5.88;;;7.10;99.90;;;;;;4942292;29;20024;-70
2022/12/28 12:00:18;;;;;;;11.48;6.13;;;7.30;99.90;;;;;;4925172;29;20031;-70
2022/12/28 12:03:00;;;;;;;15.02;6.75;;;7.50;99.90;;;;;;4924146;29;20028;-70
2022/12/28 12:05:38;;;;;;;13.75;7.10;;;7.70;99.90;;;;;;4940462;29;20036;-70
2022/12/28 12:08:15;;;;;;;15.18;7.47;;;7.70;99.90;;;;;;4940606;29;20032;-70
2022/12/28 12:10:47;;;;;;;20.15;8.30;;;8.00;99.90;;;;;;4939920;29;20100;-70
2022/12/28 12:13:25;;;;;;;16.80;8.88;;;8.30;99.90;;;;;;4940352;29;20035;-70
2022/12/28 12:16:00;;;;;;;13.75;7.47;;;8.80;99.00;;;;;;4940287;29;20115;-70
2022/12/28 12:18:28;;;;;;;16.15;9.18;;;9.70;98.10;;;;;;4940011;29;20095;-70
2022/12/28 12:21:08;;;;;;;13.30;8.15;;;10.80;93.80;;;;;;4922500;29;20038;-69
2022/12/28 12:23:39;;;;;;;13.27;8.15;;;11.60;87.00;;;;;;4922116;29;20095;-70
2022/12/28 12:26:36;;;;;;;18.70;10.15;;;11.40;81.40;;;;;;4939780;29;20027;-70
2022/12/28 12:29:17;;;;;;;15.50;8.65;;;10.90;81.20;;;;;;4939223;29;20023;-70
2022/12/28 12:31:47;;;;;;;16.55;9.95;;;11.10;79.20;;;;;;4922004;29;20087;-69
2022/12/28 12:34:30;;;;;;;14.48;8.98;;;11.20;78.00;;;;;;4939347;29;20371;-70
2022/12/28 12:37:18;;;;;;;14.80;8.93;;;11.40;77.30;;;;;;4922060;29;20052;-69
2022/12/28 12:39:52;;;;;;;15.35;11.15;;;11.60;75.70;;;;;;4938453;29;20058;-69
2022/12/28 12:43:06;;;;;;;17.42;7.63;;;12.40;72.80;;;;;;4938797;29;20027;-69
2022/12/28 12:46:06;;;;;;;13.50;8.68;;;12.80;69.50;;;;;;4870276;29;20073;-69
2022/12/28 12:49:03;;;;;;;16.77;7.85;;;13.10;68.10;;;;;;4921555;29;20465;-69
2022/12/28 12:51:44;;;;;;;13.95;7.18;;;13.00;67.80;;;;;;4921770;29;20024;-69
2022/12/28 12:54:58;;;;;;;12.43;6.90;;;13.00;68.70;;;;;;4938690;29;20071;-69
2022/12/28 12:57:32;;;;;;;15.57;7.18;;;12.80;68.10;;;;;;4934322;29;20509;-69
2022/12/28 13:00:21;;;;;;;16.05;6.95;;;12.40;69.70;;;;;;4937579;29;20483;-70
2022/12/28 13:03:14;;;;;;;15.90;7.82;;;11.50;70.90;;;;;;4922088;29;20028;-69
2022/12/28 13:05:45;;;;;;;11.68;7.30;;;10.70;75.80;;;;;;4938230;29;20035;-69
2022/12/28 13:08:22;;;;;;;15.40;7.60;;;10.20;78.90;;;;;;4938648;29;20034;-70
2022/12/28 13:10:48;;;;;;;17.30;10.80;;;9.60;82.00;;;;;;4938657;29;20106;-70
2022/12/28 13:13:23;;;;;;;15.07;7.70;;;9.10;87.30;;;;;;4939072;29;20035;-70
2022/12/28 13:15:49;;;;;;;12.23;7.38;;;8.60;91.10;;;;;;4940332;29;20457;-70
2022/12/28 13:18:17;;;;;;;10.68;6.93;;;8.20;94.90;;;;;;4922680;29;20034;-70
2022/12/28 13:20:55;;;;;;;14.13;6.97;;;7.80;98.30;;;;;;4939964;29;20480;-70
2022/12/28 13:23:22;;;;;;;14.48;7.32;;;7.50;99.90;;;;;;4939807;29;20123;-70
2022/12/28 13:25:51;;;;;;;20.48;8.35;;;7.30;99.90;;;;;;4939964;29;20110;-71